Time;durP1;ratioP1;P1;durP2;ratioP2;P2;SDS_P1;SDS_P2;PMS_P1;PMS_P2;Temp;Humidity;BMP_temperature;BMP_pressure;BME280_temperature;BME280_humidity;BME280_pressure;Samples;Min_cycle;Max_cycle;Signal;HPM_P1;HPM_P2
2020/12/21 00:00:53;;;;;;;19.93;17.80;;;7.50;99.90;;;;;;4972298;28;20865;-25
2020/12/21 00:03:21;;;;;;;19.37;17.40;;;7.50;99.90;;;;;;4974585;28;20437;-25
2020/12/21 00:05:48;;;;;;;20.93;17.13;;;7.50;99.90;;;;;;4973291;28;20453;-26
2020/12/21 00:08:18;;;;;;;18.97;16.97;;;7.40;99.90;;;;;;4971405;28;20472;-26
2020/12/21 00:10:45;;;;;;;18.90;17.10;;;7.30;99.90;;;;;;4971815;28;20907;-25
2020/12/21 00:13:12;;;;;;;20.77;17.47;;;7.30;99.90;;;;;;4970720;28;20511;-25
2020/12/21 00:15:39;;;;;;;18.53;16.40;;;7.20;99.90;;;;;;4972820;28;20450;-25
2020/12/21 00:18:05;;;;;;;19.17;17.17;;;7.10;99.90;;;;;;4971949;28;20890;-25
2020/12/21 00:20:32;;;;;;;19.37;17.50;;;7.10;99.90;;;;;;4973377;28;20552;-26
2020/12/21 00:22:58;;;;;;;18.67;16.73;;;7.10;99.90;;;;;;4972477;28;20704;-25
2020/12/21 00:25:25;;;;;;;18.33;16.43;;;7.00;99.90;;;;;;4973537;28;20860;-25
2020/12/21 00:27:52;;;;;;;20.23;16.77;;;7.00;99.90;;;;;;4972848;28;20449;-25
2020/12/21 00:30:19;;;;;;;20.83;17.60;;;7.00;99.90;;;;;;4972795;28;20495;-25
2020/12/21 00:32:46;;;;;;;22.77;20.40;;;7.00;99.90;;;;;;4972803;28;20449;-25
2020/12/21 00:35:12;;;;;;;21.73;18.00;;;7.00;99.90;;;;;;4972188;28;20437;-25
2020/12/21 00:37:39;;;;;;;24.47;18.77;;;7.00;99.90;;;;;;4969897;28;20726;-25
2020/12/21 00:40:06;;;;;;;19.80;17.63;;;7.00;99.90;;;;;;4974304;28;20922;-25
2020/12/21 00:42:35;;;;;;;19.57;17.37;;;7.00;99.90;;;;;;4973180;28;20449;-25
2020/12/21 00:45:02;;;;;;;22.47;17.77;;;7.00;99.90;;;;;;4973005;28;20603;-25
2020/12/21 00:47:32;;;;;;;23.83;17.90;;;7.00;99.90;;;;;;4973243;28;20448;-25
2020/12/21 00:49:59;;;;;;;20.17;16.60;;;7.00;99.90;;;;;;4971219;28;20481;-26
2020/12/21 00:52:26;;;;;;;19.03;17.00;;;7.00;99.90;;;;;;4970107;28;20481;-26
2020/12/21 00:54:52;;;;;;;22.33;18.43;;;7.10;99.90;;;;;;4969760;28;20464;-26
2020/12/21 00:57:19;;;;;;;22.47;18.23;;;7.10;99.90;;;;;;4972190;28;20548;-25
2020/12/21 00:59:54;;;;;;;22.10;18.17;;;7.20;99.90;;;;;;4973097;28;20495;-26
2020/12/21 01:02:20;;;;;;;21.83;17.97;;;7.20;99.90;;;;;;4971367;28;20477;-25
2020/12/21 01:04:48;;;;;;;20.60;17.57;;;7.20;99.90;;;;;;4970945;28;20734;-26
2020/12/21 01:07:14;;;;;;;19.33;17.37;;;7.20;99.90;;;;;;4971494;28;20464;-26
2020/12/21 01:09:45;;;;;;;19.87;16.10;;;7.30;99.90;;;;;;4970570;28;20537;-25
2020/12/21 01:12:13;;;;;;;17.90;16.00;;;7.30;99.90;;;;;;4970818;28;20553;-25
2020/12/21 01:14:39;;;;;;;19.50;16.17;;;7.30;99.90;;;;;;4971142;28;20442;-25
2020/12/21 01:17:06;;;;;;;19.33;16.47;;;7.30;99.90;;;;;;4971662;28;20500;-25
2020/12/21 01:19:32;;;;;;;18.00;16.20;;;7.30;99.90;;;;;;4971245;28;20802;-25
2020/12/21 01:22:00;;;;;;;17.97;15.97;;;7.30;99.90;;;;;;4971753;28;20498;-25
2020/12/21 01:24:26;;;;;;;20.10;17.30;;;7.20;99.90;;;;;;4971894;28;20843;-25
2020/12/21 01:26:53;;;;;;;19.70;16.50;;;7.20;99.90;;;;;;4971921;28;20540;-25
2020/12/21 01:29:19;;;;;;;18.27;16.33;;;7.20;99.90;;;;;;4970981;28;20705;-26
2020/12/21 01:31:46;;;;;;;19.43;17.30;;;7.20;99.90;;;;;;4971558;28;20879;-25
2020/12/21 01:34:13;;;;;;;18.30;16.27;;;7.20;99.90;;;;;;4969995;28;20587;-25
2020/12/21 01:36:40;;;;;;;17.43;15.50;;;7.20;99.90;;;;;;4972145;28;20560;-25
2020/12/21 01:39:07;;;;;;;18.47;16.57;;;7.20;99.90;;;;;;4971850;28;20441;-25
2020/12/21 01:41:34;;;;;;;20.40;18.13;;;7.20;99.90;;;;;;4972476;28;20442;-25
2020/12/21 01:44:01;;;;;;;19.13;17.23;;;7.20;99.90;;;;;;4971044;28;20583;-25
2020/12/21 01:46:28;;;;;;;20.90;17.80;;;7.20;99.90;;;;;;4969355;28;20851;-25
2020/12/21 01:48:54;;;;;;;21.90;16.93;;;7.20;99.90;;;;;;4971074;28;20863;-26
2020/12/21 01:51:22;;;;;;;18.90;16.60;;;7.20;99.90;;;;;;4970895;28;20472;-25
2020/12/21 01:53:51;;;;;;;25.63;16.10;;;7.10;99.90;;;;;;4972451;28;20449;-25
2020/12/21 01:56:18;;;;;;;19.00;17.07;;;7.00;99.90;;;;;;4972434;28;20793;-25
2020/12/21 01:58:46;;;;;;;22.50;18.10;;;6.80;99.90;;;;;;4973142;28;20638;-26
2020/12/21 02:01:14;;;;;;;22.23;18.23;;;6.70;99.90;;;;;;4971724;28;20484;-25
2020/12/21 02:03:42;;;;;;;21.43;18.73;;;6.60;99.90;;;;;;4971477;28;20442;-25
2020/12/21 02:06:09;;;;;;;18.70;16.63;;;6.50;99.90;;;;;;4970231;28;20777;-26
2020/12/21 02:08:36;;;;;;;20.37;17.77;;;6.40;99.90;;;;;;4971784;28;20469;-25
2020/12/21 02:11:04;;;;;;;19.77;17.63;;;6.30;99.90;;;;;;4973049;28;20433;-25
2020/12/21 02:13:31;;;;;;;19.80;17.80;;;6.20;99.90;;;;;;4973487;28;20879;-26
2020/12/21 02:15:58;;;;;;;19.97;16.40;;;6.20;99.90;;;;;;4972222;28;20822;-25
2020/12/21 02:18:25;;;;;;;21.70;17.63;;;6.10;99.90;;;;;;4971619;28;20473;-25
2020/12/21 02:20:52;;;;;;;19.27;16.77;;;6.00;99.90;;;;;;4972007;28;20456;-26
2020/12/21 02:23:18;;;;;;;20.17;16.27;;;6.00;99.90;;;;;;4972604;28;20821;-25
2020/12/21 02:25:45;;;;;;;18.83;16.77;;;5.90;99.90;;;;;;4971600;28;20437;-25
2020/12/21 02:28:13;;;;;;;19.70;16.43;;;5.80;99.90;;;;;;4972361;28;20442;-26
2020/12/21 02:30:39;;;;;;;21.90;18.27;;;5.80;99.90;;;;;;4973593;28;20504;-25
2020/12/21 02:33:06;;;;;;;23.00;18.13;;;5.70;99.90;;;;;;4971452;28;20448;-25
2020/12/21 02:35:34;;;;;;;20.17;16.83;;;5.70;99.90;;;;;;4972344;28;20453;-25
2020/12/21 02:38:06;;;;;;;20.93;17.80;;;5.70;99.90;;;;;;4974219;28;20442;-25
2020/12/21 02:40:35;;;;;;;19.83;17.10;;;5.70;99.90;;;;;;4973528;28;20864;-25
2020/12/21 02:43:01;;;;;;;25.13;17.20;;;5.70;99.90;;;;;;4972271;28;20468;-25
2020/12/21 02:45:28;;;;;;;19.63;17.67;;;5.80;99.90;;;;;;4971877;28;20448;-25
2020/12/21 02:47:55;;;;;;;23.13;18.30;;;5.90;99.90;;;;;;4970853;28;20839;-25
2020/12/21 02:50:22;;;;;;;19.30;16.87;;;6.00;99.90;;;;;;4972917;28;20909;-25
2020/12/21 02:52:48;;;;;;;22.20;19.80;;;6.10;99.90;;;;;;4973071;28;20761;-25
2020/12/21 02:55:16;;;;;;;20.20;16.80;;;6.10;99.90;;;;;;4973284;28;20456;-26
2020/12/21 02:57:42;;;;;;;18.27;16.00;;;6.20;99.90;;;;;;4972739;28;20754;-25
2020/12/21 03:00:09;;;;;;;20.67;18.40;;;6.20;99.90;;;;;;4972791;28;20433;-26
2020/12/21 03:02:36;;;;;;;21.10;18.40;;;6.20;99.90;;;;;;4973538;28;20449;-25
2020/12/21 03:05:03;;;;;;;18.53;15.93;;;6.20;99.90;;;;;;4973828;28;20930;-25
2020/12/21 03:07:29;;;;;;;17.83;16.03;;;6.20;99.90;;;;;;4974308;28;20489;-25
2020/12/21 03:09:56;;;;;;;19.47;17.37;;;6.10;99.90;;;;;;4973269;28;20700;-25
2020/12/21 03:12:24;;;;;;;17.07;15.37;;;6.00;99.90;;;;;;4973366;28;20751;-25
2020/12/21 03:14:50;;;;;;;17.70;15.90;;;5.90;99.90;;;;;;4975043;28;20481;-25
2020/12/21 03:17:17;;;;;;;17.87;15.63;;;5.90;99.90;;;;;;4974842;28;20731;-25
2020/12/21 03:19:44;;;;;;;19.10;17.03;;;5.80;99.90;;;;;;4974180;28;20520;-25
2020/12/21 03:22:10;;;;;;;20.13;17.80;;;5.70;99.90;;;;;;4971365;28;20475;-25
2020/12/21 03:24:37;;;;;;;20.40;16.37;;;5.70;99.90;;;;;;4974223;28;20473;-25
2020/12/21 03:27:03;;;;;;;18.73;16.53;;;5.60;99.90;;;;;;4973560;28;20734;-25
2020/12/21 03:29:31;;;;;;;18.30;16.33;;;5.60;99.90;;;;;;4972202;28;20555;-25
2020/12/21 03:31:58;;;;;;;20.07;16.53;;;5.60;99.90;;;;;;4972465;28;20437;-25
2020/12/21 03:34:24;;;;;;;18.70;16.73;;;5.60;99.90;;;;;;4973334;28;20437;-25
2020/12/21 03:36:50;;;;;;;17.90;16.00;;;5.60;99.90;;;;;;4976001;28;20453;-25
2020/12/21 03:39:17;;;;;;;19.80;17.60;;;5.60;99.90;;;;;;4977344;28;20441;-25
2020/12/21 03:41:44;;;;;;;17.73;15.63;;;5.60;99.90;;;;;;4975213;28;20437;-25
2020/12/21 03:44:10;;;;;;;17.30;15.40;;;5.50;99.90;;;;;;4977215;28;20614;-25
2020/12/21 03:46:38;;;;;;;18.87;15.73;;;5.50;99.90;;;;;;4976426;28;20739;-25
2020/12/21 03:49:04;;;;;;;20.80;16.90;;;5.50;99.90;;;;;;4976559;28;20500;-25
2020/12/21 03:51:31;;;;;;;19.37;16.00;;;5.50;99.90;;;;;;4975592;28;20591;-25
2020/12/21 03:53:57;;;;;;;17.83;15.97;;;5.50;99.90;;;;;;4975098;28;20462;-25
2020/12/21 03:56:24;;;;;;;22.97;16.47;;;5.50;99.90;;;;;;4974300;28;20446;-26
2020/12/21 03:58:50;;;;;;;17.13;13.90;;;5.50;99.90;;;;;;4973763;28;20717;-25
2020/12/21 04:01:17;;;;;;;20.67;16.27;;;5.50;99.90;;;;;;4975541;28;20445;-25
2020/12/21 04:03:44;;;;;;;21.20;18.27;;;5.50;99.90;;;;;;4976175;28;20485;-25
2020/12/21 04:06:11;;;;;;;20.57;17.00;;;5.60;99.90;;;;;;4973538;28;20468;-26
2020/12/21 04:08:37;;;;;;;19.80;16.63;;;5.50;99.90;;;;;;4974904;28;20994;-26
2020/12/21 04:11:06;;;;;;;20.60;16.00;;;5.60;99.90;;;;;;4974622;28;20448;-25
2020/12/21 04:13:33;;;;;;;21.97;17.80;;;5.50;99.90;;;;;;4975311;28;20549;-25
2020/12/21 04:15:59;;;;;;;20.93;16.80;;;5.60;99.90;;;;;;4973751;28;20552;-25
2020/12/21 04:18:27;;;;;;;34.80;18.80;;;5.60;99.90;;;;;;4974123;28;20480;-25
2020/12/21 04:20:55;;;;;;;23.80;15.97;;;5.60;99.90;;;;;;4973931;28;20527;-25
2020/12/21 04:23:22;;;;;;;32.87;18.67;;;5.60;99.90;;;;;;4974673;28;20452;-25
2020/12/21 04:25:49;;;;;;;30.63;17.43;;;5.60;99.90;;;;;;4972964;28;20492;-25
2020/12/21 04:28:16;;;;;;;26.90;18.07;;;5.60;99.90;;;;;;4973920;28;20456;-25
2020/12/21 04:30:43;;;;;;;31.77;16.30;;;5.60;99.90;;;;;;4972754;28;20473;-25
2020/12/21 04:33:09;;;;;;;31.10;17.77;;;5.60;99.90;;;;;;4972980;28;20441;-25
2020/12/21 04:35:36;;;;;;;20.10;15.97;;;5.50;99.90;;;;;;4972245;28;20464;-25
2020/12/21 04:38:03;;;;;;;19.40;15.73;;;5.40;99.90;;;;;;4972422;28;20445;-25
2020/12/21 04:40:30;;;;;;;19.50;16.37;;;5.30;99.90;;;;;;4973332;28;20481;-25
2020/12/21 04:42:59;;;;;;;18.60;15.63;;;5.20;99.90;;;;;;4974783;28;20528;-26
2020/12/21 04:45:28;;;;;;;17.40;14.43;;;5.10;99.90;;;;;;4973358;28;20519;-25
2020/12/21 04:47:56;;;;;;;15.67;14.07;;;5.00;99.90;;;;;;4971953;28;20446;-25
2020/12/21 04:50:30;;;;;;;15.27;13.67;;;4.90;99.90;;;;;;4974354;28;20512;-25
2020/12/21 04:52:59;;;;;;;16.63;14.60;;;4.70;99.90;;;;;;4973269;28;20710;-25
2020/12/21 04:55:26;;;;;;;15.33;13.70;;;4.60;99.90;;;;;;4972478;28;21048;-25
2020/12/21 04:58:00;;;;;;;16.97;14.47;;;4.60;99.90;;;;;;4972532;28;20709;-26
2020/12/21 05:00:28;;;;;;;20.43;14.77;;;4.70;99.90;;;;;;4973001;28;20449;-25
2020/12/21 05:02:55;;;;;;;19.43;16.10;;;4.70;99.90;;;;;;4974022;28;20852;-25
2020/12/21 05:05:33;;;;;;;20.33;15.00;;;4.80;99.90;;;;;;4972584;28;20472;-25
2020/12/21 05:08:08;;;;;;;21.10;18.70;;;4.90;99.90;;;;;;4972452;28;20516;-25
2020/12/21 05:10:36;;;;;;;20.00;17.23;;;5.00;99.90;;;;;;4971737;28;20640;-25
2020/12/21 05:13:04;;;;;;;28.30;18.93;;;5.10;99.90;;;;;;4971959;28;20554;-25
2020/12/21 05:15:31;;;;;;;22.23;17.63;;;5.10;99.90;;;;;;4968944;28;20449;-25
2020/12/21 05:18:05;;;;;;;27.03;17.33;;;5.10;99.90;;;;;;4971037;28;20544;-25
2020/12/21 05:20:32;;;;;;;22.53;14.67;;;5.10;99.90;;;;;;4971237;28;20777;-25
2020/12/21 05:22:59;;;;;;;22.83;16.60;;;5.10;99.90;;;;;;4972119;28;20448;-25
2020/12/21 05:25:25;;;;;;;25.03;16.33;;;5.10;99.90;;;;;;4973276;28;20535;-26
2020/12/21 05:27:54;;;;;;;19.80;16.53;;;5.00;99.90;;;;;;4973107;28;20533;-25
2020/12/21 05:30:21;;;;;;;20.57;15.93;;;4.90;99.90;;;;;;4968823;28;20469;-25
2020/12/21 05:32:48;;;;;;;17.63;15.40;;;4.90;99.90;;;;;;4971696;28;20449;-25
2020/12/21 05:35:15;;;;;;;16.80;14.13;;;4.90;99.90;;;;;;4968930;28;20449;-25
2020/12/21 05:37:42;;;;;;;24.90;17.27;;;4.90;99.90;;;;;;4952259;28;20544;-25
2020/12/21 05:40:09;;;;;;;18.93;15.03;;;4.90;99.90;;;;;;4969984;28;20565;-25
2020/12/21 05:42:37;;;;;;;26.90;16.73;;;4.90;99.90;;;;;;4970869;28;20783;-25
2020/12/21 05:45:06;;;;;;;16.77;14.97;;;4.90;99.90;;;;;;4970729;28;20438;-25
2020/12/21 05:47:35;;;;;;;18.67;15.30;;;5.00;99.90;;;;;;4969914;28;20564;-25
2020/12/21 05:50:03;;;;;;;17.80;15.63;;;5.00;99.90;;;;;;4971100;28;20645;-25
2020/12/21 05:52:32;;;;;;;24.33;17.03;;;5.00;99.90;;;;;;4970216;28;20481;-26
2020/12/21 05:55:05;;;;;;;18.60;16.00;;;5.00;99.90;;;;;;4970365;28;20446;-26
2020/12/21 05:57:32;;;;;;;21.40;15.17;;;5.00;99.90;;;;;;4970007;28;20446;-25
2020/12/21 05:59:59;;;;;;;24.43;17.43;;;5.00;99.90;;;;;;4968046;28;20720;-25
2020/12/21 06:02:28;;;;;;;20.37;15.73;;;4.90;99.90;;;;;;4969248;28;20498;-25
2020/12/21 06:05:00;;;;;;;15.70;14.10;;;4.80;99.90;;;;;;4967823;28;20672;-26
2020/12/21 06:07:30;;;;;;;17.90;14.43;;;4.70;99.90;;;;;;4966222;28;20457;-25
2020/12/21 06:09:58;;;;;;;15.93;14.33;;;4.70;99.90;;;;;;4975435;28;20558;-25
2020/12/21 06:12:26;;;;;;;19.97;15.53;;;4.60;99.90;;;;;;4989528;28;20432;-25
2020/12/21 06:14:57;;;;;;;21.77;17.53;;;4.60;99.90;;;;;;4989137;28;20476;-25
2020/12/21 06:17:23;;;;;;;24.70;16.70;;;4.60;99.90;;;;;;4984608;28;20527;-26
2020/12/21 06:20:04;;;;;;;29.37;17.63;;;4.60;99.90;;;;;;4983151;28;20642;-25
2020/12/21 06:22:30;;;;;;;22.10;17.83;;;4.70;99.90;;;;;;4984181;28;20701;-25
2020/12/21 06:24:57;;;;;;;23.67;17.73;;;4.70;99.90;;;;;;4983683;28;20456;-25
2020/12/21 06:27:23;;;;;;;23.30;19.30;;;4.70;99.90;;;;;;4984374;28;20447;-25
2020/12/21 06:29:58;;;;;;;24.93;20.03;;;4.70;99.90;;;;;;4986641;28;20456;-25
2020/12/21 06:32:31;;;;;;;25.57;19.90;;;4.70;99.90;;;;;;4984170;28;20769;-25
2020/12/21 06:34:59;;;;;;;25.83;20.70;;;4.80;99.90;;;;;;4981678;28;20449;-25
2020/12/21 06:37:26;;;;;;;24.43;18.03;;;4.90;99.90;;;;;;4979400;28;20456;-25
2020/12/21 06:40:01;;;;;;;26.40;21.07;;;4.90;99.90;;;;;;4981029;28;20824;-25
2020/12/21 06:42:28;;;;;;;30.87;21.50;;;5.00;99.90;;;;;;4979893;28;20462;-25
2020/12/21 06:44:57;;;;;;;30.10;21.27;;;5.00;99.90;;;;;;4978725;28;20948;-25
2020/12/21 06:47:25;;;;;;;23.87;17.80;;;5.10;99.90;;;;;;4979123;28;20432;-26
2020/12/21 06:49:52;;;;;;;20.47;18.43;;;5.10;99.90;;;;;;4977422;28;20472;-25
2020/12/21 06:52:20;;;;;;;21.37;18.17;;;5.20;99.90;;;;;;4977338;28;21004;-25
2020/12/21 06:54:50;;;;;;;26.13;18.20;;;5.20;99.90;;;;;;4980832;28;20452;-25
2020/12/21 06:57:17;;;;;;;21.53;16.70;;;5.20;99.90;;;;;;4979435;28;20535;-23
2020/12/21 06:59:45;;;;;;;22.13;15.87;;;5.20;99.90;;;;;;4980839;28;20840;-23
2020/12/21 07:02:15;;;;;;;15.83;13.97;;;5.10;99.90;;;;;;4979501;28;20436;-23
2020/12/21 07:04:43;;;;;;;17.80;14.63;;;5.10;99.90;;;;;;4976022;28;21176;-26
2020/12/21 07:07:10;;;;;;;16.93;13.67;;;5.10;99.90;;;;;;4971392;28;20693;-23
2020/12/21 07:09:38;;;;;;;18.77;15.10;;;5.10;99.90;;;;;;4967964;28;20532;-25
2020/12/21 07:12:05;;;;;;;20.40;16.33;;;5.20;99.90;;;;;;4977573;28;20579;-25
2020/12/21 07:14:38;;;;;;;16.90;15.03;;;5.20;99.90;;;;;;4976299;28;20695;-25
2020/12/21 07:17:06;;;;;;;15.73;14.03;;;5.20;99.90;;;;;;4971756;28;20868;-25
2020/12/21 07:19:34;;;;;;;21.60;15.57;;;5.20;99.90;;;;;;4956822;28;20718;-26
2020/12/21 07:22:02;;;;;;;17.57;14.93;;;5.20;99.90;;;;;;4946182;28;20552;-25
2020/12/21 07:24:32;;;;;;;19.13;16.30;;;5.20;99.90;;;;;;4943881;28;20849;-25
2020/12/21 07:27:00;;;;;;;26.57;19.93;;;5.20;99.90;;;;;;4958151;28;20441;-25
2020/12/21 07:29:32;;;;;;;19.77;15.53;;;5.10;99.90;;;;;;4961888;28;20685;-25
2020/12/21 07:31:59;;;;;;;20.13;16.80;;;5.10;99.90;;;;;;4962843;28;20457;-25
2020/12/21 07:34:27;;;;;;;18.13;15.37;;;5.00;99.90;;;;;;4955051;28;20507;-25
2020/12/21 07:36:54;;;;;;;15.23;13.63;;;5.00;99.90;;;;;;4960397;28;20575;-25
2020/12/21 07:39:21;;;;;;;18.27;14.17;;;5.00;99.90;;;;;;4961384;28;20663;-25
2020/12/21 07:41:51;;;;;;;15.40;13.77;;;4.90;99.90;;;;;;4961267;28;20734;-25
2020/12/21 07:44:22;;;;;;;16.50;14.40;;;4.90;99.90;;;;;;4960133;28;21152;-25
2020/12/21 07:46:55;;;;;;;17.43;14.00;;;4.90;99.90;;;;;;4958935;28;21293;-25
2020/12/21 07:49:24;;;;;;;16.17;13.50;;;5.00;99.90;;;;;;4956639;28;20576;-25
2020/12/21 07:51:57;;;;;;;14.40;13.00;;;5.00;99.90;;;;;;4957638;28;20480;-25
2020/12/21 07:54:24;;;;;;;16.27;14.57;;;5.10;99.90;;;;;;4960049;28;20446;-25
2020/12/21 07:57:00;;;;;;;14.03;12.33;;;5.10;99.90;;;;;;4961100;28;20548;-25
2020/12/21 07:59:27;;;;;;;14.67;13.20;;;5.10;99.90;;;;;;4959271;28;20452;-26
2020/12/21 08:01:57;;;;;;;13.57;11.70;;;5.10;99.90;;;;;;4954572;28;20500;-25
2020/12/21 08:04:25;;;;;;;14.63;13.20;;;5.10;99.90;;;;;;4960632;28;20516;-24
2020/12/21 08:06:53;;;;;;;18.10;13.97;;;5.10;99.90;;;;;;4943297;28;20484;-23
2020/12/21 08:09:28;;;;;;;14.40;12.97;;;5.10;99.90;;;;;;4958337;28;20728;-24
2020/12/21 08:11:54;;;;;;;14.13;12.70;;;5.10;99.90;;;;;;4960257;28;20445;-23
2020/12/21 08:14:22;;;;;;;14.50;13.10;;;5.10;99.90;;;;;;4960967;28;20516;-24
2020/12/21 08:16:50;;;;;;;16.87;13.67;;;5.10;99.90;;;;;;4955228;28;20496;-24
2020/12/21 08:19:21;;;;;;;15.00;13.60;;;5.10;99.90;;;;;;4952672;28;20441;-26
2020/12/21 08:21:48;;;;;;;13.53;12.13;;;5.10;99.90;;;;;;4932178;28;20564;-24
2020/12/21 08:24:15;;;;;;;21.20;14.30;;;5.20;99.90;;;;;;4933262;29;20945;-24
2020/12/21 08:26:41;;;;;;;15.00;13.50;;;5.20;99.90;;;;;;4937615;29;20549;-24
2020/12/21 08:29:08;;;;;;;15.77;13.90;;;5.30;99.90;;;;;;4938415;29;20572;-24
2020/12/21 08:31:43;;;;;;;14.93;13.43;;;5.40;99.90;;;;;;4932691;29;20975;-24
2020/12/21 08:34:16;;;;;;;16.30;14.60;;;5.60;99.90;;;;;;4951859;28;20541;-26
2020/12/21 08:36:43;;;;;;;20.40;15.77;;;5.70;99.90;;;;;;4948832;28;20441;-25
2020/12/21 08:39:12;;;;;;;21.50;18.10;;;5.70;99.90;;;;;;4953739;28;20456;-24
2020/12/21 08:41:41;;;;;;;19.87;17.90;;;5.80;99.90;;;;;;4954927;28;20456;-24
2020/12/21 08:44:14;;;;;;;25.57;20.77;;;5.90;99.90;;;;;;4944149;28;20470;-24
2020/12/21 08:46:49;;;;;;;27.93;19.73;;;6.00;99.90;;;;;;4930242;29;20557;-24
2020/12/21 08:49:16;;;;;;;24.50;19.87;;;6.10;99.90;;;;;;4926842;29;20474;-24
2020/12/21 08:51:43;;;;;;;25.57;20.20;;;6.20;99.90;;;;;;4951904;28;20937;-24
2020/12/21 08:54:10;;;;;;;21.50;18.70;;;6.30;99.90;;;;;;4953298;28;20463;-24
2020/12/21 08:56:36;;;;;;;22.77;18.90;;;6.40;99.90;;;;;;4951075;28;21042;-24
2020/12/21 08:59:03;;;;;;;24.13;20.50;;;6.40;99.90;;;;;;4946082;28;20484;-24
2020/12/21 09:01:30;;;;;;;24.87;19.60;;;6.50;99.90;;;;;;4946841;28;20815;-24
2020/12/21 09:03:56;;;;;;;25.10;19.03;;;6.60;99.90;;;;;;4949234;28;20649;-24
2020/12/21 09:06:24;;;;;;;25.63;19.73;;;6.60;99.90;;;;;;4941345;28;20452;-24
2020/12/21 09:08:51;;;;;;;21.23;18.57;;;6.70;99.90;;;;;;4949132;28;20647;-24
2020/12/21 09:11:19;;;;;;;29.57;24.10;;;6.80;99.90;;;;;;4950619;28;20559;-24
2020/12/21 09:13:49;;;;;;;16.60;14.10;;;6.80;99.90;;;;;;4954198;28;20471;-24
2020/12/21 09:16:21;;;;;;;15.27;13.67;;;6.80;99.90;;;;;;4940483;28;20529;-24
2020/12/21 09:18:55;;;;;;;14.43;13.00;;;6.90;99.90;;;;;;4956130;28;20476;-23
2020/12/21 09:21:27;;;;;;;13.83;12.03;;;6.90;99.90;;;;;;4953572;28;20514;-24
2020/12/21 09:23:59;;;;;;;14.80;12.80;;;7.00;99.90;;;;;;4936859;28;20908;-25
2020/12/21 09:26:29;;;;;;;17.00;13.63;;;7.00;99.90;;;;;;4941556;28;20442;-24
2020/12/21 09:28:59;;;;;;;15.67;13.97;;;7.00;99.90;;;;;;4940135;28;20531;-24
2020/12/21 09:31:29;;;;;;;16.80;15.10;;;7.00;99.90;;;;;;4939661;28;20468;-24
2020/12/21 09:34:02;;;;;;;21.17;16.93;;;7.10;99.90;;;;;;4936115;28;20450;-24
2020/12/21 09:36:32;;;;;;;20.03;17.93;;;7.20;99.90;;;;;;4932074;28;20445;-24
2020/12/21 09:39:11;;;;;;;24.50;19.33;;;7.20;99.90;;;;;;4952360;28;21040;-24
2020/12/21 09:41:37;;;;;;;21.30;18.00;;;7.30;99.90;;;;;;4948471;28;20456;-24
2020/12/21 09:44:06;;;;;;;17.50;15.70;;;7.40;99.90;;;;;;4950638;28;20629;-25
2020/12/21 09:46:35;;;;;;;21.90;16.93;;;7.50;99.90;;;;;;4947468;28;20985;-25
2020/12/21 09:49:03;;;;;;;18.97;16.70;;;7.50;99.90;;;;;;4952833;28;20446;-25
2020/12/21 09:51:32;;;;;;;20.23;18.23;;;7.60;99.90;;;;;;4950183;28;20484;-25
2020/12/21 09:54:03;;;;;;;19.53;16.70;;;7.70;99.90;;;;;;4946176;28;20449;-25
2020/12/21 09:56:30;;;;;;;23.00;16.07;;;7.70;99.90;;;;;;4952269;28;21144;-25
2020/12/21 09:58:59;;;;;;;17.10;15.50;;;7.80;99.90;;;;;;4951524;28;20449;-25
2020/12/21 10:01:32;;;;;;;18.73;16.73;;;7.90;99.90;;;;;;4939079;28;20501;-25
2020/12/21 10:04:01;;;;;;;17.77;15.90;;;8.00;99.90;;;;;;4930102;28;20647;-24
2020/12/21 10:06:33;;;;;;;17.37;15.57;;;8.00;99.90;;;;;;4948306;28;21383;-24
2020/12/21 10:09:02;;;;;;;17.20;15.37;;;8.10;99.90;;;;;;4953534;28;20573;-24
2020/12/21 10:11:31;;;;;;;17.23;15.40;;;8.00;99.90;;;;;;4950306;28;20457;-24
2020/12/21 10:14:01;;;;;;;17.33;15.50;;;7.90;99.90;;;;;;4949890;28;21086;-24
2020/12/21 10:16:45;;;;;;;17.90;16.07;;;8.00;99.90;;;;;;4937224;28;20483;-24
2020/12/21 10:19:13;;;;;;;17.10;15.40;;;8.10;99.90;;;;;;4930714;28;20652;-24
2020/12/21 10:21:41;;;;;;;18.50;15.60;;;8.20;99.90;;;;;;4909950;28;20469;-24
2020/12/21 10:24:09;;;;;;;17.17;15.47;;;8.30;99.90;;;;;;4947866;28;20465;-25
2020/12/21 10:26:49;;;;;;;17.10;15.27;;;8.40;99.90;;;;;;4932232;28;20851;-25
2020/12/21 10:29:31;;;;;;;17.30;15.60;;;8.50;99.90;;;;;;4953526;28;20468;-24
2020/12/21 10:32:00;;;;;;;17.67;15.90;;;8.60;99.90;;;;;;4950176;28;20875;-25
2020/12/21 10:34:27;;;;;;;18.63;16.77;;;8.60;99.90;;;;;;4949528;28;20519;-24
2020/12/21 10:36:55;;;;;;;19.23;17.20;;;8.60;99.90;;;;;;4950886;28;20452;-25
2020/12/21 10:39:23;;;;;;;19.03;17.00;;;8.70;99.90;;;;;;4948394;28;21197;-24
2020/12/21 10:41:49;;;;;;;16.73;14.40;;;8.70;99.90;;;;;;4951455;28;20488;-24
2020/12/21 10:44:17;;;;;;;17.37;14.57;;;8.80;99.90;;;;;;4950920;28;20930;-24
2020/12/21 10:46:47;;;;;;;16.67;14.90;;;8.90;99.90;;;;;;4955176;28;20441;-24
2020/12/21 10:49:14;;;;;;;17.60;15.70;;;8.90;99.90;;;;;;4954249;28;20460;-24
2020/12/21 10:51:41;;;;;;;17.93;16.13;;;9.00;99.90;;;;;;4967834;28;20468;-24
2020/12/21 10:54:09;;;;;;;20.57;17.17;;;9.00;99.90;;;;;;4953456;28;20452;-24
2020/12/21 10:56:36;;;;;;;17.67;15.93;;;9.10;99.90;;;;;;4952244;28;20445;-24
2020/12/21 10:59:04;;;;;;;16.53;14.50;;;9.10;99.90;;;;;;4950535;28;20465;-24
2020/12/21 11:01:31;;;;;;;16.90;15.20;;;9.10;99.90;;;;;;4941843;28;20997;-24
2020/12/21 11:03:58;;;;;;;18.77;17.00;;;9.10;99.90;;;;;;4953280;28;20535;-24
2020/12/21 11:06:26;;;;;;;17.70;16.00;;;9.20;99.90;;;;;;4976633;28;20490;-24
2020/12/21 11:08:54;;;;;;;17.10;15.50;;;9.20;99.90;;;;;;4977332;28;20448;-24
2020/12/21 11:11:26;;;;;;;17.80;16.07;;;9.20;99.90;;;;;;4954929;28;20496;-24
2020/12/21 11:13:54;;;;;;;18.70;15.70;;;9.30;99.90;;;;;;4954412;28;20445;-24
2020/12/21 11:16:22;;;;;;;17.87;16.07;;;9.30;99.90;;;;;;4945043;28;20461;-25
2020/12/21 11:18:50;;;;;;;16.37;14.83;;;9.40;99.90;;;;;;4951209;28;20445;-23
2020/12/21 11:21:17;;;;;;;16.23;14.60;;;9.40;99.90;;;;;;4956082;28;20536;-26
2020/12/21 11:23:44;;;;;;;13.50;12.23;;;9.50;99.90;;;;;;4957210;28;20511;-25
2020/12/21 11:26:14;;;;;;;15.07;13.60;;;9.50;99.90;;;;;;4954234;28;20446;-25
2020/12/21 11:28:41;;;;;;;12.90;11.70;;;9.50;99.90;;;;;;4958541;28;20926;-26
2020/12/21 11:31:08;;;;;;;13.60;12.23;;;9.50;99.90;;;;;;4957527;28;20642;-25
2020/12/21 11:33:35;;;;;;;15.30;13.07;;;9.50;99.90;;;;;;4954790;28;20456;-25
2020/12/21 11:36:02;;;;;;;13.77;12.43;;;9.50;99.90;;;;;;4956962;28;20905;-25
2020/12/21 11:38:29;;;;;;;13.27;12.07;;;9.50;99.90;;;;;;4935071;29;20462;-25
2020/12/21 11:40:56;;;;;;;12.80;11.60;;;9.30;99.90;;;;;;4933619;29;20458;-26
2020/12/21 11:43:22;;;;;;;15.00;13.50;;;9.40;99.90;;;;;;4950754;28;20465;-25
2020/12/21 11:45:51;;;;;;;15.63;13.37;;;9.40;99.90;;;;;;4956101;28;20452;-25
2020/12/21 11:48:17;;;;;;;14.87;13.37;;;9.30;99.90;;;;;;4956189;28;20503;-25
2020/12/21 11:50:45;;;;;;;16.20;13.97;;;9.40;99.90;;;;;;4955984;28;20589;-25
2020/12/21 11:53:12;;;;;;;13.40;12.10;;;9.30;99.90;;;;;;4957215;28;20464;-25
2020/12/21 11:55:39;;;;;;;16.80;13.90;;;9.20;99.90;;;;;;4958767;28;20464;-25
2020/12/21 11:58:05;;;;;;;14.13;12.73;;;9.20;99.90;;;;;;4955684;28;20468;-25
2020/12/21 12:00:32;;;;;;;15.27;13.73;;;9.10;99.90;;;;;;4955766;28;21040;-25
2020/12/21 12:02:59;;;;;;;14.17;12.87;;;9.10;99.90;;;;;;4954836;28;20637;-25
2020/12/21 12:05:26;;;;;;;13.67;12.27;;;9.20;99.90;;;;;;4957302;28;20491;-25
2020/12/21 12:07:53;;;;;;;15.30;13.77;;;9.10;99.90;;;;;;4957148;28;20461;-25
2020/12/21 12:10:19;;;;;;;14.83;13.30;;;9.20;99.90;;;;;;4955540;28;20481;-25
2020/12/21 12:12:58;;;;;;;19.33;15.17;;;9.30;99.90;;;;;;4957032;28;20468;-26
2020/12/21 12:15:25;;;;;;;13.20;11.93;;;9.40;99.90;;;;;;4955723;28;20555;-25
2020/12/21 12:17:51;;;;;;;17.20;13.70;;;9.50;99.90;;;;;;4958652;28;20445;-25
2020/12/21 12:20:19;;;;;;;47.53;23.70;;;9.70;99.90;;;;;;4957169;28;20910;-25
2020/12/21 12:22:46;;;;;;;69.43;31.60;;;9.80;99.90;;;;;;4959130;28;20453;-25
2020/12/21 12:25:12;;;;;;;38.70;23.70;;;10.00;99.90;;;;;;4958385;28;20806;-25
2020/12/21 12:28:03;;;;;;;31.80;20.03;;;10.10;99.90;;;;;;4958011;28;20485;-25
2020/12/21 12:30:51;;;;;;;29.07;21.00;;;10.20;99.90;;;;;;4956445;28;20473;-26
2020/12/21 12:33:18;;;;;;;24.17;20.40;;;10.30;99.90;;;;;;4954900;28;20463;-25
2020/12/21 12:35:46;;;;;;;30.13;20.87;;;10.30;99.90;;;;;;4957052;28;20442;-25
2020/12/21 12:38:14;;;;;;;21.13;18.93;;;10.20;99.90;;;;;;4958911;28;20571;-25
2020/12/21 12:40:46;;;;;;;21.30;17.57;;;10.10;99.90;;;;;;4961541;28;20844;-26